This is the latest recevied weather packets stored in our database for station/object WA7CUG. If no packets are shown the sender has not sent any weather packets the latest 10 day(s).
| Time | Temp. | Humidity | Pressure | Rain* | Wind** | Luminosity | Snow |
|---|---|---|---|---|---|---|---|
| 1777471251 | 7.22° C | 85% | 1024.4 hPa | 0 mm | - | 61 W/m² | - |
| 1777470948 | 6.67° C | 86% | 1024.4 hPa | 0 mm | - | 54 W/m² | - |
| 1777470645 | 6.11° C | 86% | 1024.3 hPa | 0 mm | - | 49 W/m² | - |
| 1777470341 | 7.78° C | 83% | 1024.3 hPa | 0 mm | - | 43 W/m² | - |
| 1777470038 | 7.22° C | 84% | 1024.2 hPa | 0 mm | - | 38 W/m² | - |
| 1777469733 | 6.11° C | 85% | 1024.2 hPa | 0 mm | - | 34 W/m² | - |
| 1777469430 | 5.56° C | 88% | 1024.3 hPa | 0 mm | - | 30 W/m² | - |
| 1777469125 | 5° C | 89% | 1024.1 hPa | 0 mm | - | 26 W/m² | - |
| 1777468819 | 5.56° C | 88% | 1024.2 hPa | 0 mm | - | 23 W/m² | - |
| 1777468516 | 5° C | 90% | 1024 hPa | 0 mm | - | 20 W/m² | - |
| 1777468212 | 3.89° C | 92% | 1024.2 hPa | 0 mm | - | 17 W/m² | - |
| 1777467909 | 3.89° C | 90% | 1024.2 hPa | 0 mm | - | 13 W/m² | - |
| 1777467605 | 4.44° C | 91% | 1024.1 hPa | 0 mm | - | 10 W/m² | - |
| 1777467300 | 5° C | 87% | 1023.9 hPa | 0 mm | - | 8 W/m² | - |
| 1777466996 | 5.56° C | 88% | 1023.9 hPa | 0 mm | - | 6 W/m² | - |
| 1777466694 | 4.44° C | 91% | 1023.8 hPa | 0 mm | - | 4 W/m² | - |
| 1777466391 | 4.44° C | 92% | 1023.8 hPa | 0 mm | - | 2 W/m² | - |
| 1777466087 | 4.44° C | 91% | 1023.8 hPa | 0 mm | - | 1 W/m² | - |
| 1777465784 | 5° C | 90% | 1023.7 hPa | 0 mm | - | 1 W/m² | - |
| 1777465479 | 5° C | 88% | 1023.6 hPa | 0 mm | - | 0 W/m² | - |
| 1777465178 | 5.56° C | 88% | 1023.6 hPa | 0 mm | - | 0 W/m² | - |
| 1777464874 | 5° C | 89% | 1023.7 hPa | 0 mm | - | 0 W/m² | - |
| 1777464569 | 5° C | 89% | 1023.7 hPa | 0 mm | - | 0 W/m² | - |
| 1777464266 | 5.56° C | 85% | 1023.6 hPa | 0 mm | - | 0 W/m² | - |
| 1777463961 | 5.56° C | 86% | 1023.4 hPa | 0 mm | - | 0 W/m² | - |
* Rain latest hour (hover to see other rain measurements)
** Current wind speed in m/s (hover to see current wind gust speed)